sensor_id;sensor_type;location;lat;lon;timestamp;temperature;humidity
59771;DHT22;45649;53.014;6.600;2023-06-22T00:02:13;20.50;87.10
59771;DHT22;45649;53.014;6.600;2023-06-22T00:04:39;20.50;86.60
59771;DHT22;45649;53.014;6.600;2023-06-22T00:07:05;20.50;86.60
59771;DHT22;45649;53.014;6.600;2023-06-22T00:09:31;20.50;86.60
59771;DHT22;45649;53.014;6.600;2023-06-22T00:11:57;20.40;87.90
59771;DHT22;45649;53.014;6.600;2023-06-22T00:14:23;20.40;88.00
59771;DHT22;45649;53.014;6.600;2023-06-22T00:16:49;20.40;88.00
59771;DHT22;45649;53.014;6.600;2023-06-22T00:19:15;20.40;88.20
59771;DHT22;45649;53.014;6.600;2023-06-22T00:21:41;20.30;88.30
59771;DHT22;45649;53.014;6.600;2023-06-22T00:24:08;20.30;88.40
59771;DHT22;45649;53.014;6.600;2023-06-22T00:26:34;20.20;88.50
59771;DHT22;45649;53.014;6.600;2023-06-22T00:28:59;20.20;88.40
59771;DHT22;45649;53.014;6.600;2023-06-22T00:31:25;20.10;88.00
59771;DHT22;45649;53.014;6.600;2023-06-22T00:33:51;20.00;88.10
59771;DHT22;45649;53.014;6.600;2023-06-22T00:36:17;19.90;88.60
59771;DHT22;45649;53.014;6.600;2023-06-22T00:38:43;19.90;88.50
59771;DHT22;45649;53.014;6.600;2023-06-22T00:41:09;19.80;89.30
59771;DHT22;45649;53.014;6.600;2023-06-22T00:43:35;19.80;89.70
59771;DHT22;45649;53.014;6.600;2023-06-22T00:46:01;19.80;89.90
59771;DHT22;45649;53.014;6.600;2023-06-22T00:48:26;19.70;89.70
59771;DHT22;45649;53.014;6.600;2023-06-22T00:50:52;19.70;90.00
59771;DHT22;45649;53.014;6.600;2023-06-22T00:53:21;19.80;90.10
59771;DHT22;45649;53.014;6.600;2023-06-22T00:55:48;19.80;90.10
59771;DHT22;45649;53.014;6.600;2023-06-22T00:58:17;19.70;89.80
59771;DHT22;45649;53.014;6.600;2023-06-22T01:00:47;19.70;90.10
59771;DHT22;45649;53.014;6.600;2023-06-22T01:03:13;19.70;90.20
59771;DHT22;45649;53.014;6.600;2023-06-22T01:05:40;19.70;89.90
59771;DHT22;45649;53.014;6.600;2023-06-22T01:08:20;19.80;90.10
59771;DHT22;45649;53.014;6.600;2023-06-22T01:10:53;19.70;89.80
59771;DHT22;45649;53.014;6.600;2023-06-22T01:16:13;19.60;90.10
59771;DHT22;45649;53.014;6.600;2023-06-22T01:18:42;19.50;90.40
59771;DHT22;45649;53.014;6.600;2023-06-22T01:21:12;19.40;90.40
59771;DHT22;45649;53.014;6.600;2023-06-22T01:29:00;19.40;90.60
59771;DHT22;45649;53.014;6.600;2023-06-22T01:31:27;19.30;90.90
59771;DHT22;45649;53.014;6.600;2023-06-22T01:33:58;19.20;91.20
59771;DHT22;45649;53.014;6.600;2023-06-22T01:36:25;19.20;91.30
59771;DHT22;45649;53.014;6.600;2023-06-22T01:38:52;19.20;91.20
59771;DHT22;45649;53.014;6.600;2023-06-22T01:41:19;19.20;91.00
59771;DHT22;45649;53.014;6.600;2023-06-22T01:43:45;19.10;91.10
59771;DHT22;45649;53.014;6.600;2023-06-22T01:46:11;19.10;91.20
59771;DHT22;45649;53.014;6.600;2023-06-22T01:48:38;19.10;91.30
59771;DHT22;45649;53.014;6.600;2023-06-22T01:51:04;19.10;91.40
59771;DHT22;45649;53.014;6.600;2023-06-22T01:53:30;19.00;91.70
59771;DHT22;45649;53.014;6.600;2023-06-22T01:55:56;18.90;92.10
59771;DHT22;45649;53.014;6.600;2023-06-22T01:58:26;18.90;91.90
59771;DHT22;45649;53.014;6.600;2023-06-22T02:03:34;18.80;91.50
59771;DHT22;45649;53.014;6.600;2023-06-22T02:06:46;18.80;91.30
59771;DHT22;45649;53.014;6.600;2023-06-22T02:09:14;18.80;91.30
59771;DHT22;45649;53.014;6.600;2023-06-22T02:11:43;18.90;91.30
59771;DHT22;45649;53.014;6.600;2023-06-22T02:14:10;18.90;91.20
59771;DHT22;45649;53.014;6.600;2023-06-22T02:16:37;18.90;91.10
59771;DHT22;45649;53.014;6.600;2023-06-22T02:19:03;18.80;91.20
59771;DHT22;45649;53.014;6.600;2023-06-22T02:21:29;18.70;91.20
59771;DHT22;45649;53.014;6.600;2023-06-22T02:23:56;18.80;90.90
59771;DHT22;45649;53.014;6.600;2023-06-22T02:26:22;18.80;90.30
59771;DHT22;45649;53.014;6.600;2023-06-22T02:28:49;18.90;90.30
59771;DHT22;45649;53.014;6.600;2023-06-22T02:31:14;18.80;90.20
59771;DHT22;45649;53.014;6.600;2023-06-22T02:33:41;18.80;90.10
59771;DHT22;45649;53.014;6.600;2023-06-22T02:36:07;18.80;90.00
59771;DHT22;45649;53.014;6.600;2023-06-22T02:38:35;18.70;90.20
59771;DHT22;45649;53.014;6.600;2023-06-22T02:41:02;18.60;90.50
59771;DHT22;45649;53.014;6.600;2023-06-22T02:43:27;18.50;90.60
59771;DHT22;45649;53.014;6.600;2023-06-22T02:45:53;18.50;91.10
59771;DHT22;45649;53.014;6.600;2023-06-22T02:48:19;18.50;91.10
59771;DHT22;45649;53.014;6.600;2023-06-22T02:50:45;18.50;90.90
59771;DHT22;45649;53.014;6.600;2023-06-22T02:53:11;18.50;90.80
59771;DHT22;45649;53.014;6.600;2023-06-22T02:55:36;18.60;90.60
59771;DHT22;45649;53.014;6.600;2023-06-22T02:58:02;18.60;90.50
59771;DHT22;45649;53.014;6.600;2023-06-22T03:00:31;18.50;90.80
59771;DHT22;45649;53.014;6.600;2023-06-22T03:02:57;18.50;90.90
59771;DHT22;45649;53.014;6.600;2023-06-22T03:05:23;18.50;90.80
59771;DHT22;45649;53.014;6.600;2023-06-22T03:07:49;18.50;90.90
59771;DHT22;45649;53.014;6.600;2023-06-22T03:10:16;18.50;91.10
59771;DHT22;45649;53.014;6.600;2023-06-22T03:12:42;18.50;91.20
59771;DHT22;45649;53.014;6.600;2023-06-22T03:15:10;18.60;91.10
59771;DHT22;45649;53.014;6.600;2023-06-22T03:17:37;18.50;91.20
59771;DHT22;45649;53.014;6.600;2023-06-22T03:20:05;18.50;91.40
59771;DHT22;45649;53.014;6.600;2023-06-22T03:22:41;18.50;91.80
59771;DHT22;45649;53.014;6.600;2023-06-22T03:25:08;18.50;92.00
59771;DHT22;45649;53.014;6.600;2023-06-22T03:27:41;18.50;92.10
59771;DHT22;45649;53.014;6.600;2023-06-22T03:30:09;18.40;92.50
59771;DHT22;45649;53.014;6.600;2023-06-22T03:32:35;18.30;93.10
59771;DHT22;45649;53.014;6.600;2023-06-22T03:35:01;18.30;93.40
59771;DHT22;45649;53.014;6.600;2023-06-22T03:37:28;18.20;93.20
59771;DHT22;45649;53.014;6.600;2023-06-22T03:39:54;18.20;93.30
59771;DHT22;45649;53.014;6.600;2023-06-22T03:42:21;18.20;93.20
59771;DHT22;45649;53.014;6.600;2023-06-22T03:44:47;18.10;93.40
59771;DHT22;45649;53.014;6.600;2023-06-22T03:47:13;18.00;93.40
59771;DHT22;45649;53.014;6.600;2023-06-22T03:49:39;18.10;93.30
59771;DHT22;45649;53.014;6.600;2023-06-22T03:52:05;18.00;93.30
59771;DHT22;45649;53.014;6.600;2023-06-22T03:54:31;18.00;93.30
59771;DHT22;45649;53.014;6.600;2023-06-22T03:56:57;18.00;93.40
59771;DHT22;45649;53.014;6.600;2023-06-22T03:59:24;18.00;93.50
59771;DHT22;45649;53.014;6.600;2023-06-22T04:01:49;18.00;93.80
59771;DHT22;45649;53.014;6.600;2023-06-22T04:04:19;18.00;93.50
59771;DHT22;45649;53.014;6.600;2023-06-22T04:06:45;18.00;93.30
59771;DHT22;45649;53.014;6.600;2023-06-22T04:09:11;17.90;93.90
59771;DHT22;45649;53.014;6.600;2023-06-22T04:11:37;17.90;94.10
59771;DHT22;45649;53.014;6.600;2023-06-22T04:14:02;17.90;94.10
59771;DHT22;45649;53.014;6.600;2023-06-22T04:16:28;17.80;94.20
59771;DHT22;45649;53.014;6.600;2023-06-22T04:18:54;17.90;93.60
59771;DHT22;45649;53.014;6.600;2023-06-22T04:21:19;17.90;93.40
59771;DHT22;45649;53.014;6.600;2023-06-22T04:23:46;17.90;93.40
59771;DHT22;45649;53.014;6.600;2023-06-22T04:26:13;17.90;93.70
59771;DHT22;45649;53.014;6.600;2023-06-22T04:28:40;17.90;93.90
59771;DHT22;45649;53.014;6.600;2023-06-22T04:31:06;17.90;93.90
59771;DHT22;45649;53.014;6.600;2023-06-22T04:33:32;17.80;94.20
59771;DHT22;45649;53.014;6.600;2023-06-22T04:35:58;17.80;94.30
59771;DHT22;45649;53.014;6.600;2023-06-22T04:38:26;17.80;94.40
59771;DHT22;45649;53.014;6.600;2023-06-22T04:40:52;17.80;94.30
59771;DHT22;45649;53.014;6.600;2023-06-22T04:43:19;17.70;94.50
59771;DHT22;45649;53.014;6.600;2023-06-22T04:45:45;17.80;94.40
59771;DHT22;45649;53.014;6.600;2023-06-22T04:48:11;17.90;94.30
59771;DHT22;45649;53.014;6.600;2023-06-22T04:50:41;18.00;94.40
59771;DHT22;45649;53.014;6.600;2023-06-22T04:53:07;18.10;94.30
59771;DHT22;45649;53.014;6.600;2023-06-22T04:55:35;18.10;94.00
59771;DHT22;45649;53.014;6.600;2023-06-22T04:58:03;18.10;94.10
59771;DHT22;45649;53.014;6.600;2023-06-22T05:00:31;18.10;93.90
59771;DHT22;45649;53.014;6.600;2023-06-22T05:02:57;18.10;94.50
59771;DHT22;45649;53.014;6.600;2023-06-22T05:05:23;18.20;94.60
59771;DHT22;45649;53.014;6.600;2023-06-22T05:07:51;18.30;94.40
59771;DHT22;45649;53.014;6.600;2023-06-22T05:10:19;18.40;94.70
59771;DHT22;45649;53.014;6.600;2023-06-22T05:12:46;18.40;94.80
59771;DHT22;45649;53.014;6.600;2023-06-22T05:15:11;18.50;94.60
59771;DHT22;45649;53.014;6.600;2023-06-22T05:17:38;18.60;95.00
59771;DHT22;45649;53.014;6.600;2023-06-22T05:20:12;18.70;94.60
59771;DHT22;45649;53.014;6.600;2023-06-22T05:22:43;18.80;94.50
59771;DHT22;45649;53.014;6.600;2023-06-22T05:25:10;18.80;94.50
59771;DHT22;45649;53.014;6.600;2023-06-22T05:27:37;18.90;94.90
59771;DHT22;45649;53.014;6.600;2023-06-22T05:30:09;18.90;94.70
59771;DHT22;45649;53.014;6.600;2023-06-22T05:32:36;19.00;93.60
59771;DHT22;45649;53.014;6.600;2023-06-22T05:35:03;19.10;94.00
59771;DHT22;45649;53.014;6.600;2023-06-22T05:37:29;19.20;94.80
59771;DHT22;45649;53.014;6.600;2023-06-22T05:39:55;19.20;94.60
59771;DHT22;45649;53.014;6.600;2023-06-22T05:42:21;19.30;95.50
59771;DHT22;45649;53.014;6.600;2023-06-22T05:44:47;19.30;95.50
59771;DHT22;45649;53.014;6.600;2023-06-22T05:47:13;19.50;95.10
59771;DHT22;45649;53.014;6.600;2023-06-22T05:49:38;19.50;95.20
59771;DHT22;45649;53.014;6.600;2023-06-22T05:52:04;19.50;94.80
59771;DHT22;45649;53.014;6.600;2023-06-22T05:54:30;19.50;95.80
59771;DHT22;45649;53.014;6.600;2023-06-22T05:56:56;19.60;96.00
59771;DHT22;45649;53.014;6.600;2023-06-22T05:59:22;19.70;95.80
59771;DHT22;45649;53.014;6.600;2023-06-22T06:01:48;19.80;95.80
59771;DHT22;45649;53.014;6.600;2023-06-22T06:04:17;19.80;95.70
59771;DHT22;45649;53.014;6.600;2023-06-22T06:06:44;20.00;95.90
59771;DHT22;45649;53.014;6.600;2023-06-22T06:09:09;20.00;95.90
59771;DHT22;45649;53.014;6.600;2023-06-22T06:11:37;20.00;96.30
59771;DHT22;45649;53.014;6.600;2023-06-22T06:14:03;20.00;95.70
59771;DHT22;45649;53.014;6.600;2023-06-22T06:16:29;20.00;96.00
59771;DHT22;45649;53.014;6.600;2023-06-22T06:18:54;20.10;95.80
59771;DHT22;45649;53.014;6.600;2023-06-22T06:21:21;20.10;95.80
59771;DHT22;45649;53.014;6.600;2023-06-22T06:23:48;20.10;95.00
59771;DHT22;45649;53.014;6.600;2023-06-22T06:26:13;20.20;94.40
59771;DHT22;45649;53.014;6.600;2023-06-22T06:28:42;20.10;94.70
59771;DHT22;45649;53.014;6.600;2023-06-22T06:31:08;20.20;94.40
59771;DHT22;45649;53.014;6.600;2023-06-22T06:33:35;20.20;94.20
59771;DHT22;45649;53.014;6.600;2023-06-22T06:36:01;20.30;95.00
59771;DHT22;45649;53.014;6.600;2023-06-22T06:38:30;20.30;94.70
59771;DHT22;45649;53.014;6.600;2023-06-22T06:40:56;20.40;94.30
59771;DHT22;45649;53.014;6.600;2023-06-22T06:43:21;20.40;93.70
59771;DHT22;45649;53.014;6.600;2023-06-22T06:45:48;20.30;93.70
59771;DHT22;45649;53.014;6.600;2023-06-22T06:48:13;20.40;93.40
59771;DHT22;45649;53.014;6.600;2023-06-22T06:50:39;20.50;92.80
59771;DHT22;45649;53.014;6.600;2023-06-22T06:53:05;20.50;92.80
59771;DHT22;45649;53.014;6.600;2023-06-22T06:55:31;20.50;92.30
59771;DHT22;45649;53.014;6.600;2023-06-22T06:57:58;20.60;91.70
59771;DHT22;45649;53.014;6.600;2023-06-22T07:00:25;20.70;91.90
59771;DHT22;45649;53.014;6.600;2023-06-22T07:02:51;20.70;91.40
59771;DHT22;45649;53.014;6.600;2023-06-22T07:05:17;20.80;91.10
59771;DHT22;45649;53.014;6.600;2023-06-22T07:07:43;20.90;90.90
59771;DHT22;45649;53.014;6.600;2023-06-22T07:10:09;21.00;90.70
59771;DHT22;45649;53.014;6.600;2023-06-22T07:12:35;21.00;90.00
59771;DHT22;45649;53.014;6.600;2023-06-22T07:15:03;20.90;89.80
59771;DHT22;45649;53.014;6.600;2023-06-22T07:17:29;20.90;89.10
59771;DHT22;45649;53.014;6.600;2023-06-22T07:19:55;20.90;88.90
59771;DHT22;45649;53.014;6.600;2023-06-22T07:22:21;21.00;88.00
59771;DHT22;45649;53.014;6.600;2023-06-22T07:24:47;21.00;88.20
59771;DHT22;45649;53.014;6.600;2023-06-22T07:27:12;21.00;88.10
59771;DHT22;45649;53.014;6.600;2023-06-22T07:29:38;21.10;87.40
59771;DHT22;45649;53.014;6.600;2023-06-22T07:32:08;21.20;87.20
59771;DHT22;45649;53.014;6.600;2023-06-22T07:34:34;21.20;86.60
59771;DHT22;45649;53.014;6.600;2023-06-22T07:37:00;21.20;84.90
59771;DHT22;45649;53.014;6.600;2023-06-22T07:39:26;21.20;84.80
59771;DHT22;45649;53.014;6.600;2023-06-22T07:41:52;21.30;84.10
59771;DHT22;45649;53.014;6.600;2023-06-22T07:44:18;21.40;83.50
59771;DHT22;45649;53.014;6.600;2023-06-22T07:46:44;21.50;83.10
59771;DHT22;45649;53.014;6.600;2023-06-22T07:49:09;21.60;83.30
59771;DHT22;45649;53.014;6.600;2023-06-22T07:51:35;21.50;83.60
59771;DHT22;45649;53.014;6.600;2023-06-22T07:54:01;21.60;83.30
59771;DHT22;45649;53.014;6.600;2023-06-22T07:56:27;21.70;82.80
59771;DHT22;45649;53.014;6.600;2023-06-22T07:58:52;21.80;82.70
59771;DHT22;45649;53.014;6.600;2023-06-22T08:01:19;21.80;81.40
59771;DHT22;45649;53.014;6.600;2023-06-22T08:03:48;21.80;81.30
59771;DHT22;45649;53.014;6.600;2023-06-22T08:06:14;21.80;81.80
59771;DHT22;45649;53.014;6.600;2023-06-22T08:08:40;21.90;81.50
59771;DHT22;45649;53.014;6.600;2023-06-22T08:11:06;21.90;80.70
59771;DHT22;45649;53.014;6.600;2023-06-22T08:13:31;22.00;80.40
59771;DHT22;45649;53.014;6.600;2023-06-22T08:15:57;22.00;80.60
59771;DHT22;45649;53.014;6.600;2023-06-22T08:18:23;22.10;80.90
59771;DHT22;45649;53.014;6.600;2023-06-22T08:20:49;22.20;80.50
59771;DHT22;45649;53.014;6.600;2023-06-22T08:23:15;22.40;80.00
59771;DHT22;45649;53.014;6.600;2023-06-22T08:25:41;22.30;78.80
59771;DHT22;45649;53.014;6.600;2023-06-22T08:28:06;22.40;79.20
59771;DHT22;45649;53.014;6.600;2023-06-22T08:30:32;22.60;81.00
59771;DHT22;45649;53.014;6.600;2023-06-22T08:32:58;22.70;78.90
59771;DHT22;45649;53.014;6.600;2023-06-22T08:35:24;22.70;78.50
59771;DHT22;45649;53.014;6.600;2023-06-22T08:37:50;22.80;78.40
59771;DHT22;45649;53.014;6.600;2023-06-22T08:40:18;23.00;78.50
59771;DHT22;45649;53.014;6.600;2023-06-22T08:42:46;23.10;77.70
59771;DHT22;45649;53.014;6.600;2023-06-22T08:45:13;23.10;76.90
59771;DHT22;45649;53.014;6.600;2023-06-22T08:47:39;23.20;76.90
59771;DHT22;45649;53.014;6.600;2023-06-22T08:50:07;23.20;77.00
59771;DHT22;45649;53.014;6.600;2023-06-22T08:52:34;23.30;77.00
59771;DHT22;45649;53.014;6.600;2023-06-22T08:55:00;23.30;76.30
59771;DHT22;45649;53.014;6.600;2023-06-22T08:57:26;23.40;75.80
59771;DHT22;45649;53.014;6.600;2023-06-22T08:59:52;23.50;75.20
59771;DHT22;45649;53.014;6.600;2023-06-22T09:02:19;23.60;75.70
59771;DHT22;45649;53.014;6.600;2023-06-22T09:04:46;23.70;75.50
59771;DHT22;45649;53.014;6.600;2023-06-22T09:07:12;23.70;73.70
59771;DHT22;45649;53.014;6.600;2023-06-22T09:09:38;23.70;74.60
59771;DHT22;45649;53.014;6.600;2023-06-22T09:12:04;23.80;74.40
59771;DHT22;45649;53.014;6.600;2023-06-22T09:14:29;23.90;73.70
59771;DHT22;45649;53.014;6.600;2023-06-22T09:16:58;24.00;74.00
59771;DHT22;45649;53.014;6.600;2023-06-22T09:19:24;23.90;72.70
59771;DHT22;45649;53.014;6.600;2023-06-22T09:21:49;24.00;73.50
59771;DHT22;45649;53.014;6.600;2023-06-22T09:24:15;24.00;72.40
59771;DHT22;45649;53.014;6.600;2023-06-22T09:26:41;24.10;72.30
59771;DHT22;45649;53.014;6.600;2023-06-22T09:29:06;24.10;72.80
59771;DHT22;45649;53.014;6.600;2023-06-22T09:31:32;24.00;72.80
59771;DHT22;45649;53.014;6.600;2023-06-22T09:33:58;24.10;72.40
59771;DHT22;45649;53.014;6.600;2023-06-22T09:36:24;24.20;71.80
59771;DHT22;45649;53.014;6.600;2023-06-22T09:38:50;24.30;71.50
59771;DHT22;45649;53.014;6.600;2023-06-22T09:41:21;24.30;71.00
59771;DHT22;45649;53.014;6.600;2023-06-22T09:43:47;24.30;68.90
59771;DHT22;45649;53.014;6.600;2023-06-22T09:46:16;24.20;69.50
59771;DHT22;45649;53.014;6.600;2023-06-22T09:48:42;24.30;68.50
59771;DHT22;45649;53.014;6.600;2023-06-22T09:51:08;24.30;69.30
59771;DHT22;45649;53.014;6.600;2023-06-22T09:53:34;24.50;69.00
59771;DHT22;45649;53.014;6.600;2023-06-22T09:56:03;24.50;67.40
59771;DHT22;45649;53.014;6.600;2023-06-22T09:58:30;24.60;67.50
59771;DHT22;45649;53.014;6.600;2023-06-22T10:00:56;24.50;67.70
59771;DHT22;45649;53.014;6.600;2023-06-22T10:03:22;24.60;67.80
59771;DHT22;45649;53.014;6.600;2023-06-22T10:05:48;24.70;68.10
59771;DHT22;45649;53.014;6.600;2023-06-22T10:08:14;24.70;67.00
59771;DHT22;45649;53.014;6.600;2023-06-22T10:10:39;24.80;66.80
59771;DHT22;45649;53.014;6.600;2023-06-22T10:13:10;24.80;66.20
59771;DHT22;45649;53.014;6.600;2023-06-22T10:15:36;24.70;65.70
59771;DHT22;45649;53.014;6.600;2023-06-22T10:18:03;24.90;66.90
59771;DHT22;45649;53.014;6.600;2023-06-22T10:20:28;24.90;66.10
59771;DHT22;45649;53.014;6.600;2023-06-22T10:22:54;24.90;65.70
59771;DHT22;45649;53.014;6.600;2023-06-22T10:25:20;24.80;66.00
59771;DHT22;45649;53.014;6.600;2023-06-22T10:27:46;24.70;66.10
59771;DHT22;45649;53.014;6.600;2023-06-22T10:30:13;24.70;65.60
59771;DHT22;45649;53.014;6.600;2023-06-22T10:32:39;24.70;68.20
59771;DHT22;45649;53.014;6.600;2023-06-22T10:35:05;24.90;66.60
59771;DHT22;45649;53.014;6.600;2023-06-22T10:37:32;24.90;65.50
59771;DHT22;45649;53.014;6.600;2023-06-22T10:39:58;25.00;64.60
59771;DHT22;45649;53.014;6.600;2023-06-22T10:42:24;25.00;63.30
59771;DHT22;45649;53.014;6.600;2023-06-22T10:44:49;25.10;63.50
59771;DHT22;45649;53.014;6.600;2023-06-22T10:47:15;25.10;63.30
59771;DHT22;45649;53.014;6.600;2023-06-22T10:49:41;25.10;63.60
59771;DHT22;45649;53.014;6.600;2023-06-22T10:52:07;25.10;63.20
59771;DHT22;45649;53.014;6.600;2023-06-22T10:54:34;25.10;63.30
59771;DHT22;45649;53.014;6.600;2023-06-22T10:57:01;25.10;62.40
59771;DHT22;45649;53.014;6.600;2023-06-22T10:59:29;25.10;62.90
59771;DHT22;45649;53.014;6.600;2023-06-22T11:01:56;25.30;63.50
59771;DHT22;45649;53.014;6.600;2023-06-22T11:04:22;25.40;63.00
59771;DHT22;45649;53.014;6.600;2023-06-22T11:06:48;25.30;63.20
59771;DHT22;45649;53.014;6.600;2023-06-22T11:09:15;25.30;62.60
59771;DHT22;45649;53.014;6.600;2023-06-22T11:11:50;25.40;63.50
59771;DHT22;45649;53.014;6.600;2023-06-22T11:14:19;25.50;63.50
59771;DHT22;45649;53.014;6.600;2023-06-22T11:16:44;25.50;62.60
59771;DHT22;45649;53.014;6.600;2023-06-22T11:19:12;25.40;61.70
59771;DHT22;45649;53.014;6.600;2023-06-22T11:21:38;25.30;61.00
59771;DHT22;45649;53.014;6.600;2023-06-22T11:24:04;25.40;62.00
59771;DHT22;45649;53.014;6.600;2023-06-22T11:26:29;25.30;62.50
59771;DHT22;45649;53.014;6.600;2023-06-22T11:28:57;25.10;62.40
59771;DHT22;45649;53.014;6.600;2023-06-22T11:31:24;25.20;61.80
59771;DHT22;45649;53.014;6.600;2023-06-22T11:33:50;25.20;62.40
59771;DHT22;45649;53.014;6.600;2023-06-22T11:36:16;25.20;62.10
59771;DHT22;45649;53.014;6.600;2023-06-22T11:38:42;25.10;60.30
59771;DHT22;45649;53.014;6.600;2023-06-22T11:41:09;25.10;60.90
59771;DHT22;45649;53.014;6.600;2023-06-22T11:43:35;25.10;60.40
59771;DHT22;45649;53.014;6.600;2023-06-22T11:46:04;25.20;61.30
59771;DHT22;45649;53.014;6.600;2023-06-22T11:48:30;25.30;61.70
59771;DHT22;45649;53.014;6.600;2023-06-22T11:50:56;25.20;61.60
59771;DHT22;45649;53.014;6.600;2023-06-22T11:53:25;25.30;61.30
59771;DHT22;45649;53.014;6.600;2023-06-22T11:55:51;25.30;61.10
59771;DHT22;45649;53.014;6.600;2023-06-22T11:58:18;25.20;61.60
59771;DHT22;45649;53.014;6.600;2023-06-22T12:00:43;25.10;60.60
59771;DHT22;45649;53.014;6.600;2023-06-22T12:03:10;25.30;62.90
59771;DHT22;45649;53.014;6.600;2023-06-22T12:05:38;25.30;63.30
59771;DHT22;45649;53.014;6.600;2023-06-22T12:08:03;25.40;62.50
59771;DHT22;45649;53.014;6.600;2023-06-22T12:10:29;25.40;62.40
59771;DHT22;45649;53.014;6.600;2023-06-22T12:12:55;25.30;61.20
59771;DHT22;45649;53.014;6.600;2023-06-22T12:15:23;25.40;62.00
59771;DHT22;45649;53.014;6.600;2023-06-22T12:17:49;25.30;61.70
59771;DHT22;45649;53.014;6.600;2023-06-22T12:20:15;25.50;61.30
59771;DHT22;45649;53.014;6.600;2023-06-22T12:22:41;25.50;61.10
59771;DHT22;45649;53.014;6.600;2023-06-22T12:25:08;25.50;60.60
59771;DHT22;45649;53.014;6.600;2023-06-22T12:27:34;25.40;60.60
59771;DHT22;45649;53.014;6.600;2023-06-22T12:30:01;25.40;60.80
59771;DHT22;45649;53.014;6.600;2023-06-22T12:32:27;25.40;60.50
59771;DHT22;45649;53.014;6.600;2023-06-22T12:34:52;25.30;60.70
59771;DHT22;45649;53.014;6.600;2023-06-22T12:37:18;25.30;60.90
59771;DHT22;45649;53.014;6.600;2023-06-22T12:39:44;25.40;60.70
59771;DHT22;45649;53.014;6.600;2023-06-22T12:42:10;25.40;60.40
59771;DHT22;45649;53.014;6.600;2023-06-22T12:44:40;25.40;59.60
59771;DHT22;45649;53.014;6.600;2023-06-22T12:47:06;25.40;60.60
59771;DHT22;45649;53.014;6.600;2023-06-22T12:49:34;25.50;61.00
59771;DHT22;45649;53.014;6.600;2023-06-22T12:52:01;25.60;60.90
59771;DHT22;45649;53.014;6.600;2023-06-22T12:54:26;25.60;60.00
59771;DHT22;45649;53.014;6.600;2023-06-22T12:56:53;25.60;60.10
59771;DHT22;45649;53.014;6.600;2023-06-22T12:59:19;25.60;60.80
59771;DHT22;45649;53.014;6.600;2023-06-22T13:01:45;25.50;60.90
59771;DHT22;45649;53.014;6.600;2023-06-22T13:04:11;25.50;60.70
59771;DHT22;45649;53.014;6.600;2023-06-22T13:06:41;25.60;60.00
59771;DHT22;45649;53.014;6.600;2023-06-22T13:09:07;25.50;61.10
59771;DHT22;45649;53.014;6.600;2023-06-22T13:11:32;25.50;61.60
59771;DHT22;45649;53.014;6.600;2023-06-22T13:13:58;25.40;61.60
59771;DHT22;45649;53.014;6.600;2023-06-22T13:16:24;25.30;61.40
59771;DHT22;45649;53.014;6.600;2023-06-22T13:18:49;25.40;60.80
59771;DHT22;45649;53.014;6.600;2023-06-22T13:21:15;25.20;60.60
59771;DHT22;45649;53.014;6.600;2023-06-22T13:23:41;25.20;61.40
59771;DHT22;45649;53.014;6.600;2023-06-22T13:26:07;25.10;62.30
59771;DHT22;45649;53.014;6.600;2023-06-22T13:28:33;25.10;63.10
59771;DHT22;45649;53.014;6.600;2023-06-22T13:30:58;25.10;62.90
59771;DHT22;45649;53.014;6.600;2023-06-22T13:33:24;25.20;63.80
59771;DHT22;45649;53.014;6.600;2023-06-22T13:35:50;25.10;64.00
59771;DHT22;45649;53.014;6.600;2023-06-22T13:38:16;25.10;64.10
59771;DHT22;45649;53.014;6.600;2023-06-22T13:40:43;25.10;64.10
59771;DHT22;45649;53.014;6.600;2023-06-22T13:43:09;25.20;63.90
59771;DHT22;45649;53.014;6.600;2023-06-22T13:45:34;25.20;63.50
59771;DHT22;45649;53.014;6.600;2023-06-22T13:48:01;25.10;63.70
59771;DHT22;45649;53.014;6.600;2023-06-22T13:50:26;25.00;64.50
59771;DHT22;45649;53.014;6.600;2023-06-22T13:52:54;25.10;65.50
59771;DHT22;45649;53.014;6.600;2023-06-22T13:55:20;25.00;64.60
59771;DHT22;45649;53.014;6.600;2023-06-22T13:57:46;24.80;64.80
59771;DHT22;45649;53.014;6.600;2023-06-22T14:00:13;24.80;65.30
59771;DHT22;45649;53.014;6.600;2023-06-22T14:02:39;24.80;65.40
59771;DHT22;45649;53.014;6.600;2023-06-22T14:05:08;24.80;65.20
59771;DHT22;45649;53.014;6.600;2023-06-22T14:07:33;24.80;65.60
59771;DHT22;45649;53.014;6.600;2023-06-22T14:10:00;24.80;65.40
59771;DHT22;45649;53.014;6.600;2023-06-22T14:12:26;24.70;65.20
59771;DHT22;45649;53.014;6.600;2023-06-22T14:14:52;24.60;65.30
59771;DHT22;45649;53.014;6.600;2023-06-22T14:17:18;24.60;65.90
59771;DHT22;45649;53.014;6.600;2023-06-22T14:19:51;24.50;66.30
59771;DHT22;45649;53.014;6.600;2023-06-22T14:22:22;24.50;66.40
59771;DHT22;45649;53.014;6.600;2023-06-22T14:24:48;24.50;66.80
59771;DHT22;45649;53.014;6.600;2023-06-22T14:27:15;24.60;66.90
59771;DHT22;45649;53.014;6.600;2023-06-22T14:29:41;24.50;66.40
59771;DHT22;45649;53.014;6.600;2023-06-22T14:32:07;24.50;66.30
59771;DHT22;45649;53.014;6.600;2023-06-22T14:34:34;24.40;66.40
59771;DHT22;45649;53.014;6.600;2023-06-22T14:37:06;24.30;66.40
59771;DHT22;45649;53.014;6.600;2023-06-22T14:39:33;24.30;67.00
59771;DHT22;45649;53.014;6.600;2023-06-22T14:41:59;24.30;67.40
59771;DHT22;45649;53.014;6.600;2023-06-22T14:44:26;24.20;67.50
59771;DHT22;45649;53.014;6.600;2023-06-22T14:46:55;24.10;68.00
59771;DHT22;45649;53.014;6.600;2023-06-22T14:49:20;24.10;67.30
59771;DHT22;45649;53.014;6.600;2023-06-22T14:51:46;24.00;67.90
59771;DHT22;45649;53.014;6.600;2023-06-22T14:54:14;23.90;67.90
59771;DHT22;45649;53.014;6.600;2023-06-22T14:56:39;24.00;67.90
59771;DHT22;45649;53.014;6.600;2023-06-22T14:59:06;23.90;66.80
59771;DHT22;45649;53.014;6.600;2023-06-22T15:01:31;23.80;66.00
59771;DHT22;45649;53.014;6.600;2023-06-22T15:03:57;23.70;66.60
59771;DHT22;45649;53.014;6.600;2023-06-22T15:06:23;23.60;66.30
59771;DHT22;45649;53.014;6.600;2023-06-22T15:08:49;23.60;66.30
59771;DHT22;45649;53.014;6.600;2023-06-22T15:11:14;23.60;66.40
59771;DHT22;45649;53.014;6.600;2023-06-22T15:13:43;23.40;66.90
59771;DHT22;45649;53.014;6.600;2023-06-22T15:16:09;23.50;68.90
59771;DHT22;45649;53.014;6.600;2023-06-22T15:18:35;23.40;68.30
59771;DHT22;45649;53.014;6.600;2023-06-22T15:21:04;23.30;69.40
59771;DHT22;45649;53.014;6.600;2023-06-22T15:23:31;23.30;70.20
59771;DHT22;45649;53.014;6.600;2023-06-22T15:25:57;23.10;70.30
59771;DHT22;45649;53.014;6.600;2023-06-22T15:28:23;23.20;71.70
59771;DHT22;45649;53.014;6.600;2023-06-22T15:30:50;23.10;72.20
59771;DHT22;45649;53.014;6.600;2023-06-22T15:33:16;22.90;72.40
59771;DHT22;45649;53.014;6.600;2023-06-22T15:35:42;22.90;72.40
59771;DHT22;45649;53.014;6.600;2023-06-22T15:38:07;22.90;72.20